sensor_id;sensor_type;location;lat;lon;timestamp;P1;durP1;ratioP1;P2;durP2;ratioP2
16579;SDS011;8402;51.466;6.806;2022-07-31T00:00:21;3.67;;;2.50;;
16579;SDS011;8402;51.466;6.806;2022-07-31T00:02:50;5.90;;;2.50;;
16579;SDS011;8402;51.466;6.806;2022-07-31T00:05:18;4.10;;;2.70;;
16579;SDS011;8402;51.466;6.806;2022-07-31T00:07:46;3.38;;;2.50;;
16579;SDS011;8402;51.466;6.806;2022-07-31T00:10:14;5.53;;;2.58;;
16579;SDS011;8402;51.466;6.806;2022-07-31T00:12:43;3.67;;;2.60;;
16579;SDS011;8402;51.466;6.806;2022-07-31T00:15:11;6.18;;;2.58;;
16579;SDS011;8402;51.466;6.806;2022-07-31T00:17:40;4.00;;;2.72;;
16579;SDS011;8402;51.466;6.806;2022-07-31T00:20:09;3.63;;;2.75;;
16579;SDS011;8402;51.466;6.806;2022-07-31T00:22:39;4.32;;;2.70;;
16579;SDS011;8402;51.466;6.806;2022-07-31T00:25:08;3.35;;;2.75;;
16579;SDS011;8402;51.466;6.806;2022-07-31T00:27:37;4.57;;;2.78;;
16579;SDS011;8402;51.466;6.806;2022-07-31T00:30:07;3.72;;;2.70;;
16579;SDS011;8402;51.466;6.806;2022-07-31T00:32:38;3.88;;;2.90;;
16579;SDS011;8402;51.466;6.806;2022-07-31T00:35:07;5.00;;;2.97;;
16579;SDS011;8402;51.466;6.806;2022-07-31T00:37:37;6.85;;;2.97;;
16579;SDS011;8402;51.466;6.806;2022-07-31T00:40:07;4.45;;;2.70;;
16579;SDS011;8402;51.466;6.806;2022-07-31T00:42:36;5.63;;;2.67;;
16579;SDS011;8402;51.466;6.806;2022-07-31T00:45:07;3.97;;;2.80;;
16579;SDS011;8402;51.466;6.806;2022-07-31T00:47:39;4.53;;;3.00;;
16579;SDS011;8402;51.466;6.806;2022-07-31T00:50:07;4.63;;;2.88;;
16579;SDS011;8402;51.466;6.806;2022-07-31T00:52:36;5.13;;;2.83;;
16579;SDS011;8402;51.466;6.806;2022-07-31T00:55:05;3.10;;;2.78;;
16579;SDS011;8402;51.466;6.806;2022-07-31T00:57:34;7.75;;;3.00;;
16579;SDS011;8402;51.466;6.806;2022-07-31T01:00:02;4.18;;;2.83;;
16579;SDS011;8402;51.466;6.806;2022-07-31T01:02:33;5.32;;;2.90;;
16579;SDS011;8402;51.466;6.806;2022-07-31T01:05:02;3.38;;;2.75;;
16579;SDS011;8402;51.466;6.806;2022-07-31T01:07:30;4.65;;;3.10;;
16579;SDS011;8402;51.466;6.806;2022-07-31T01:09:58;5.25;;;2.90;;
16579;SDS011;8402;51.466;6.806;2022-07-31T01:12:31;4.18;;;2.97;;
16579;SDS011;8402;51.466;6.806;2022-07-31T01:15:05;5.68;;;3.03;;
16579;SDS011;8402;51.466;6.806;2022-07-31T01:17:37;3.63;;;3.05;;
16579;SDS011;8402;51.466;6.806;2022-07-31T01:20:08;3.53;;;2.97;;
16579;SDS011;8402;51.466;6.806;2022-07-31T01:25:53;4.15;;;2.97;;
16579;SDS011;8402;51.466;6.806;2022-07-31T01:28:45;5.28;;;3.25;;
16579;SDS011;8402;51.466;6.806;2022-07-31T01:31:25;3.90;;;2.83;;
16579;SDS011;8402;51.466;6.806;2022-07-31T01:33:58;8.43;;;3.40;;
16579;SDS011;8402;51.466;6.806;2022-07-31T01:36:30;4.25;;;2.90;;
16579;SDS011;8402;51.466;6.806;2022-07-31T01:39:01;3.92;;;3.28;;
16579;SDS011;8402;51.466;6.806;2022-07-31T01:41:31;4.85;;;2.90;;
16579;SDS011;8402;51.466;6.806;2022-07-31T01:44:05;3.80;;;3.08;;
16579;SDS011;8402;51.466;6.806;2022-07-31T01:46:39;5.53;;;3.42;;
16579;SDS011;8402;51.466;6.806;2022-07-31T01:49:09;5.75;;;2.90;;
16579;SDS011;8402;51.466;6.806;2022-07-31T01:51:39;4.00;;;3.08;;
16579;SDS011;8402;51.466;6.806;2022-07-31T01:54:09;4.15;;;3.05;;
16579;SDS011;8402;51.466;6.806;2022-07-31T01:56:38;4.13;;;2.88;;
16579;SDS011;8402;51.466;6.806;2022-07-31T01:59:09;3.33;;;3.03;;
16579;SDS011;8402;51.466;6.806;2022-07-31T02:01:48;3.95;;;3.20;;
16579;SDS011;8402;51.466;6.806;2022-07-31T02:04:17;4.20;;;3.38;;
16579;SDS011;8402;51.466;6.806;2022-07-31T02:06:48;4.30;;;3.10;;
16579;SDS011;8402;51.466;6.806;2022-07-31T02:09:16;7.22;;;3.10;;
16579;SDS011;8402;51.466;6.806;2022-07-31T02:11:46;4.40;;;3.28;;
16579;SDS011;8402;51.466;6.806;2022-07-31T02:14:21;3.67;;;2.90;;
16579;SDS011;8402;51.466;6.806;2022-07-31T02:16:50;4.93;;;3.25;;
16579;SDS011;8402;51.466;6.806;2022-07-31T02:19:18;3.83;;;3.40;;
16579;SDS011;8402;51.466;6.806;2022-07-31T02:21:48;4.63;;;3.20;;
16579;SDS011;8402;51.466;6.806;2022-07-31T02:24:16;5.15;;;3.50;;
16579;SDS011;8402;51.466;6.806;2022-07-31T02:26:45;3.72;;;3.00;;
16579;SDS011;8402;51.466;6.806;2022-07-31T02:29:14;3.72;;;2.97;;
16579;SDS011;8402;51.466;6.806;2022-07-31T02:31:47;4.68;;;3.00;;
16579;SDS011;8402;51.466;6.806;2022-07-31T02:34:29;5.25;;;3.60;;
16579;SDS011;8402;51.466;6.806;2022-07-31T02:36:58;4.05;;;3.30;;
16579;SDS011;8402;51.466;6.806;2022-07-31T02:39:28;4.65;;;3.13;;
16579;SDS011;8402;51.466;6.806;2022-07-31T02:41:58;4.82;;;3.60;;
16579;SDS011;8402;51.466;6.806;2022-07-31T02:44:28;5.53;;;3.30;;
16579;SDS011;8402;51.466;6.806;2022-07-31T02:47:01;6.30;;;3.53;;
16579;SDS011;8402;51.466;6.806;2022-07-31T02:49:30;4.45;;;3.40;;
16579;SDS011;8402;51.466;6.806;2022-07-31T02:52:00;4.50;;;3.10;;
16579;SDS011;8402;51.466;6.806;2022-07-31T02:54:30;3.42;;;2.92;;
16579;SDS011;8402;51.466;6.806;2022-07-31T02:57:00;5.65;;;3.50;;
16579;SDS011;8402;51.466;6.806;2022-07-31T02:59:29;3.78;;;2.95;;
16579;SDS011;8402;51.466;6.806;2022-07-31T03:01:57;4.57;;;3.05;;
16579;SDS011;8402;51.466;6.806;2022-07-31T03:04:26;6.20;;;2.95;;
16579;SDS011;8402;51.466;6.806;2022-07-31T03:06:55;5.78;;;3.47;;
16579;SDS011;8402;51.466;6.806;2022-07-31T03:09:23;3.75;;;3.33;;
16579;SDS011;8402;51.466;6.806;2022-07-31T03:11:51;4.35;;;3.40;;
16579;SDS011;8402;51.466;6.806;2022-07-31T03:14:19;5.95;;;3.70;;
16579;SDS011;8402;51.466;6.806;2022-07-31T03:16:48;4.90;;;3.40;;
16579;SDS011;8402;51.466;6.806;2022-07-31T03:19:18;5.35;;;3.60;;
16579;SDS011;8402;51.466;6.806;2022-07-31T03:21:49;4.13;;;3.25;;
16579;SDS011;8402;51.466;6.806;2022-07-31T03:24:17;5.65;;;3.53;;
16579;SDS011;8402;51.466;6.806;2022-07-31T03:26:47;5.65;;;3.30;;
16579;SDS011;8402;51.466;6.806;2022-07-31T03:29:15;3.75;;;3.38;;
16579;SDS011;8402;51.466;6.806;2022-07-31T03:32:03;4.65;;;3.15;;
16579;SDS011;8402;51.466;6.806;2022-07-31T03:34:32;4.82;;;3.08;;
16579;SDS011;8402;51.466;6.806;2022-07-31T03:37:02;5.95;;;3.00;;
16579;SDS011;8402;51.466;6.806;2022-07-31T03:39:30;5.00;;;2.97;;
16579;SDS011;8402;51.466;6.806;2022-07-31T03:41:57;4.93;;;3.08;;
16579;SDS011;8402;51.466;6.806;2022-07-31T03:44:28;4.47;;;2.95;;
16579;SDS011;8402;51.466;6.806;2022-07-31T03:46:59;4.35;;;2.97;;
16579;SDS011;8402;51.466;6.806;2022-07-31T03:49:27;3.80;;;3.10;;
16579;SDS011;8402;51.466;6.806;2022-07-31T03:51:57;5.47;;;3.50;;
16579;SDS011;8402;51.466;6.806;2022-07-31T03:54:28;4.63;;;3.22;;
16579;SDS011;8402;51.466;6.806;2022-07-31T03:56:56;4.32;;;3.05;;
16579;SDS011;8402;51.466;6.806;2022-07-31T03:59:24;6.15;;;3.65;;
16579;SDS011;8402;51.466;6.806;2022-07-31T04:01:57;8.27;;;3.45;;
16579;SDS011;8402;51.466;6.806;2022-07-31T04:04:32;4.53;;;3.40;;
16579;SDS011;8402;51.466;6.806;2022-07-31T04:06:59;4.88;;;3.53;;
16579;SDS011;8402;51.466;6.806;2022-07-31T04:09:29;6.00;;;3.30;;
16579;SDS011;8402;51.466;6.806;2022-07-31T04:11:57;4.07;;;3.13;;
16579;SDS011;8402;51.466;6.806;2022-07-31T04:14:24;5.00;;;3.30;;
16579;SDS011;8402;51.466;6.806;2022-07-31T04:16:52;6.38;;;3.30;;
16579;SDS011;8402;51.466;6.806;2022-07-31T04:19:21;5.72;;;3.42;;
16579;SDS011;8402;51.466;6.806;2022-07-31T04:21:49;4.50;;;3.30;;
16579;SDS011;8402;51.466;6.806;2022-07-31T04:24:17;4.80;;;3.45;;
16579;SDS011;8402;51.466;6.806;2022-07-31T04:26:48;6.47;;;3.40;;
16579;SDS011;8402;51.466;6.806;2022-07-31T04:29:17;5.32;;;3.65;;
16579;SDS011;8402;51.466;6.806;2022-07-31T04:31:45;7.32;;;3.60;;
16579;SDS011;8402;51.466;6.806;2022-07-31T04:34:13;6.03;;;3.42;;
16579;SDS011;8402;51.466;6.806;2022-07-31T04:36:41;5.40;;;3.53;;
16579;SDS011;8402;51.466;6.806;2022-07-31T04:39:09;8.00;;;3.40;;
16579;SDS011;8402;51.466;6.806;2022-07-31T04:41:37;4.55;;;3.42;;
16579;SDS011;8402;51.466;6.806;2022-07-31T04:44:06;10.60;;;4.03;;
16579;SDS011;8402;51.466;6.806;2022-07-31T04:46:35;6.75;;;3.30;;
16579;SDS011;8402;51.466;6.806;2022-07-31T04:49:03;5.45;;;3.65;;
16579;SDS011;8402;51.466;6.806;2022-07-31T04:51:31;5.78;;;3.60;;
16579;SDS011;8402;51.466;6.806;2022-07-31T04:53:59;5.50;;;3.92;;
16579;SDS011;8402;51.466;6.806;2022-07-31T04:56:27;8.50;;;4.25;;
16579;SDS011;8402;51.466;6.806;2022-07-31T04:59:04;6.70;;;4.28;;
16579;SDS011;8402;51.466;6.806;2022-07-31T05:01:34;7.25;;;4.45;;
16579;SDS011;8402;51.466;6.806;2022-07-31T05:04:03;9.68;;;4.78;;
16579;SDS011;8402;51.466;6.806;2022-07-31T05:06:32;5.50;;;4.32;;
16579;SDS011;8402;51.466;6.806;2022-07-31T05:09:01;9.60;;;4.80;;
16579;SDS011;8402;51.466;6.806;2022-07-31T05:11:36;7.15;;;5.00;;
16579;SDS011;8402;51.466;6.806;2022-07-31T05:14:04;9.05;;;5.45;;
16579;SDS011;8402;51.466;6.806;2022-07-31T05:16:35;9.43;;;5.55;;
16579;SDS011;8402;51.466;6.806;2022-07-31T05:19:04;7.25;;;5.45;;
16579;SDS011;8402;51.466;6.806;2022-07-31T05:21:40;7.60;;;5.63;;
16579;SDS011;8402;51.466;6.806;2022-07-31T05:24:29;10.10;;;5.53;;
16579;SDS011;8402;51.466;6.806;2022-07-31T05:26:59;11.30;;;5.75;;
16579;SDS011;8402;51.466;6.806;2022-07-31T05:29:27;11.27;;;6.47;;
16579;SDS011;8402;51.466;6.806;2022-07-31T05:31:57;11.52;;;6.53;;
16579;SDS011;8402;51.466;6.806;2022-07-31T05:34:26;12.00;;;6.00;;
16579;SDS011;8402;51.466;6.806;2022-07-31T05:37:03;8.80;;;6.20;;
16579;SDS011;8402;51.466;6.806;2022-07-31T05:39:30;8.95;;;6.13;;
16579;SDS011;8402;51.466;6.806;2022-07-31T05:41:59;11.25;;;7.05;;
16579;SDS011;8402;51.466;6.806;2022-07-31T05:44:27;9.63;;;6.82;;
16579;SDS011;8402;51.466;6.806;2022-07-31T05:46:56;9.63;;;7.32;;
16579;SDS011;8402;51.466;6.806;2022-07-31T05:49:23;10.20;;;7.28;;
16579;SDS011;8402;51.466;6.806;2022-07-31T05:51:54;11.02;;;6.45;;
16579;SDS011;8402;51.466;6.806;2022-07-31T05:54:22;13.05;;;6.90;;
16579;SDS011;8402;51.466;6.806;2022-07-31T05:56:50;8.85;;;6.80;;
16579;SDS011;8402;51.466;6.806;2022-07-31T05:59:18;11.52;;;7.72;;
16579;SDS011;8402;51.466;6.806;2022-07-31T06:01:46;14.32;;;6.82;;
16579;SDS011;8402;51.466;6.806;2022-07-31T06:04:16;9.45;;;6.72;;
16579;SDS011;8402;51.466;6.806;2022-07-31T06:06:45;8.32;;;6.20;;
16579;SDS011;8402;51.466;6.806;2022-07-31T06:09:13;12.65;;;6.38;;
16579;SDS011;8402;51.466;6.806;2022-07-31T06:11:41;9.05;;;6.72;;
16579;SDS011;8402;51.466;6.806;2022-07-31T06:14:09;12.93;;;7.10;;
16579;SDS011;8402;51.466;6.806;2022-07-31T06:16:37;10.32;;;6.03;;
16579;SDS011;8402;51.466;6.806;2022-07-31T06:19:05;14.13;;;6.50;;
16579;SDS011;8402;51.466;6.806;2022-07-31T06:21:34;11.80;;;6.50;;
16579;SDS011;8402;51.466;6.806;2022-07-31T06:24:03;8.85;;;6.38;;
16579;SDS011;8402;51.466;6.806;2022-07-31T06:26:34;11.52;;;6.30;;
16579;SDS011;8402;51.466;6.806;2022-07-31T06:29:02;10.65;;;6.30;;
16579;SDS011;8402;51.466;6.806;2022-07-31T06:31:30;8.73;;;6.60;;
16579;SDS011;8402;51.466;6.806;2022-07-31T06:33:58;10.05;;;6.47;;
16579;SDS011;8402;51.466;6.806;2022-07-31T06:36:26;7.93;;;5.93;;
16579;SDS011;8402;51.466;6.806;2022-07-31T06:38:55;8.43;;;5.15;;
16579;SDS011;8402;51.466;6.806;2022-07-31T06:41:23;9.50;;;5.28;;
16579;SDS011;8402;51.466;6.806;2022-07-31T06:44:09;9.38;;;5.03;;
16579;SDS011;8402;51.466;6.806;2022-07-31T06:46:37;7.57;;;4.97;;
16579;SDS011;8402;51.466;6.806;2022-07-31T06:49:14;6.32;;;4.80;;
16579;SDS011;8402;51.466;6.806;2022-07-31T06:51:43;6.28;;;4.38;;
16579;SDS011;8402;51.466;6.806;2022-07-31T06:54:13;5.75;;;4.10;;
16579;SDS011;8402;51.466;6.806;2022-07-31T06:56:41;5.68;;;4.13;;
16579;SDS011;8402;51.466;6.806;2022-07-31T06:59:09;6.82;;;4.15;;
16579;SDS011;8402;51.466;6.806;2022-07-31T07:01:37;4.47;;;3.88;;
16579;SDS011;8402;51.466;6.806;2022-07-31T07:04:06;8.80;;;4.40;;
16579;SDS011;8402;51.466;6.806;2022-07-31T07:06:34;4.18;;;3.70;;
16579;SDS011;8402;51.466;6.806;2022-07-31T07:09:02;6.72;;;3.65;;
16579;SDS011;8402;51.466;6.806;2022-07-31T07:11:32;7.78;;;3.42;;
16579;SDS011;8402;51.466;6.806;2022-07-31T07:14:00;6.43;;;3.58;;
16579;SDS011;8402;51.466;6.806;2022-07-31T07:16:28;9.27;;;3.97;;
16579;SDS011;8402;51.466;6.806;2022-07-31T07:18:56;6.18;;;3.63;;
16579;SDS011;8402;51.466;6.806;2022-07-31T07:21:23;5.70;;;3.85;;
16579;SDS011;8402;51.466;6.806;2022-07-31T07:23:51;7.75;;;3.67;;
16579;SDS011;8402;51.466;6.806;2022-07-31T07:26:20;6.85;;;3.53;;
16579;SDS011;8402;51.466;6.806;2022-07-31T07:28:49;6.10;;;3.53;;
16579;SDS011;8402;51.466;6.806;2022-07-31T07:31:17;5.50;;;2.97;;
16579;SDS011;8402;51.466;6.806;2022-07-31T07:33:45;4.30;;;2.80;;
16579;SDS011;8402;51.466;6.806;2022-07-31T07:36:14;5.63;;;2.97;;
16579;SDS011;8402;51.466;6.806;2022-07-31T07:38:48;3.88;;;3.20;;
16579;SDS011;8402;51.466;6.806;2022-07-31T07:41:17;4.78;;;3.00;;
16579;SDS011;8402;51.466;6.806;2022-07-31T07:43:45;6.00;;;3.13;;
16579;SDS011;8402;51.466;6.806;2022-07-31T07:46:19;4.53;;;2.72;;
16579;SDS011;8402;51.466;6.806;2022-07-31T07:48:48;5.40;;;3.15;;
16579;SDS011;8402;51.466;6.806;2022-07-31T07:51:17;4.30;;;2.90;;
16579;SDS011;8402;51.466;6.806;2022-07-31T07:53:46;16.75;;;3.28;;
16579;SDS011;8402;51.466;6.806;2022-07-31T07:56:15;4.55;;;2.97;;
16579;SDS011;8402;51.466;6.806;2022-07-31T07:58:43;5.28;;;3.22;;
16579;SDS011;8402;51.466;6.806;2022-07-31T08:01:12;5.82;;;3.28;;
16579;SDS011;8402;51.466;6.806;2022-07-31T08:03:42;5.90;;;3.30;;
16579;SDS011;8402;51.466;6.806;2022-07-31T08:06:17;8.00;;;3.38;;
16579;SDS011;8402;51.466;6.806;2022-07-31T08:08:46;5.00;;;2.92;;
16579;SDS011;8402;51.466;6.806;2022-07-31T08:11:14;5.45;;;3.50;;
16579;SDS011;8402;51.466;6.806;2022-07-31T08:13:43;3.80;;;2.90;;
16579;SDS011;8402;51.466;6.806;2022-07-31T08:16:16;5.38;;;3.67;;
16579;SDS011;8402;51.466;6.806;2022-07-31T08:18:47;4.53;;;3.78;;
16579;SDS011;8402;51.466;6.806;2022-07-31T08:21:15;5.28;;;3.65;;
16579;SDS011;8402;51.466;6.806;2022-07-31T08:23:43;6.57;;;3.53;;
16579;SDS011;8402;51.466;6.806;2022-07-31T08:26:11;5.28;;;3.45;;
16579;SDS011;8402;51.466;6.806;2022-07-31T08:28:40;5.78;;;3.78;;
16579;SDS011;8402;51.466;6.806;2022-07-31T08:31:16;4.90;;;3.22;;
16579;SDS011;8402;51.466;6.806;2022-07-31T08:33:46;6.05;;;3.72;;
16579;SDS011;8402;51.466;6.806;2022-07-31T08:36:14;6.25;;;3.30;;
16579;SDS011;8402;51.466;6.806;2022-07-31T08:38:42;9.15;;;3.60;;
16579;SDS011;8402;51.466;6.806;2022-07-31T08:41:11;6.07;;;3.50;;
16579;SDS011;8402;51.466;6.806;2022-07-31T08:43:40;4.97;;;3.10;;
16579;SDS011;8402;51.466;6.806;2022-07-31T08:46:28;4.68;;;3.25;;
16579;SDS011;8402;51.466;6.806;2022-07-31T08:49:00;4.43;;;3.17;;
16579;SDS011;8402;51.466;6.806;2022-07-31T08:51:30;4.40;;;3.35;;
16579;SDS011;8402;51.466;6.806;2022-07-31T08:54:16;3.75;;;3.33;;
16579;SDS011;8402;51.466;6.806;2022-07-31T08:56:46;4.00;;;3.50;;
16579;SDS011;8402;51.466;6.806;2022-07-31T08:59:17;4.63;;;3.42;;
16579;SDS011;8402;51.466;6.806;2022-07-31T09:01:47;3.80;;;3.25;;
16579;SDS011;8402;51.466;6.806;2022-07-31T09:04:17;5.45;;;3.17;;
16579;SDS011;8402;51.466;6.806;2022-07-31T09:06:45;4.88;;;3.38;;
16579;SDS011;8402;51.466;6.806;2022-07-31T09:09:13;4.03;;;2.97;;
16579;SDS011;8402;51.466;6.806;2022-07-31T09:11:46;5.43;;;3.47;;
16579;SDS011;8402;51.466;6.806;2022-07-31T09:14:23;7.82;;;2.97;;
16579;SDS011;8402;51.466;6.806;2022-07-31T09:16:52;4.93;;;2.65;;
16579;SDS011;8402;51.466;6.806;2022-07-31T09:19:35;2.75;;;2.25;;
16579;SDS011;8402;51.466;6.806;2022-07-31T09:22:20;5.15;;;2.38;;
16579;SDS011;8402;51.466;6.806;2022-07-31T09:24:48;4.70;;;2.72;;
16579;SDS011;8402;51.466;6.806;2022-07-31T09:27:16;4.60;;;2.90;;
16579;SDS011;8402;51.466;6.806;2022-07-31T09:29:45;3.47;;;2.67;;
16579;SDS011;8402;51.466;6.806;2022-07-31T09:32:15;3.85;;;2.20;;
16579;SDS011;8402;51.466;6.806;2022-07-31T09:34:46;2.80;;;2.40;;
16579;SDS011;8402;51.466;6.806;2022-07-31T09:37:15;3.95;;;2.70;;
16579;SDS011;8402;51.466;6.806;2022-07-31T09:39:47;5.47;;;2.97;;
16579;SDS011;8402;51.466;6.806;2022-07-31T09:42:18;3.20;;;2.30;;
16579;SDS011;8402;51.466;6.806;2022-07-31T09:44:47;5.97;;;2.38;;
16579;SDS011;8402;51.466;6.806;2022-07-31T09:47:20;2.60;;;2.40;;
16579;SDS011;8402;51.466;6.806;2022-07-31T09:49:54;5.90;;;2.80;;
16579;SDS011;8402;51.466;6.806;2022-07-31T09:52:24;3.00;;;2.70;;
16579;SDS011;8402;51.466;6.806;2022-07-31T09:54:59;3.75;;;2.58;;
16579;SDS011;8402;51.466;6.806;2022-07-31T09:57:49;5.63;;;2.22;;
16579;SDS011;8402;51.466;6.806;2022-07-31T10:00:19;4.22;;;2.53;;
16579;SDS011;8402;51.466;6.806;2022-07-31T10:02:48;5.13;;;2.58;;
16579;SDS011;8402;51.466;6.806;2022-07-31T10:05:18;4.03;;;2.65;;
16579;SDS011;8402;51.466;6.806;2022-07-31T10:07:49;5.93;;;2.55;;
16579;SDS011;8402;51.466;6.806;2022-07-31T10:10:17;4.20;;;2.80;;
16579;SDS011;8402;51.466;6.806;2022-07-31T10:12:49;3.42;;;2.75;;
16579;SDS011;8402;51.466;6.806;2022-07-31T10:15:19;3.00;;;2.40;;
16579;SDS011;8402;51.466;6.806;2022-07-31T10:17:50;4.40;;;2.70;;
16579;SDS011;8402;51.466;6.806;2022-07-31T10:20:20;4.35;;;2.40;;
16579;SDS011;8402;51.466;6.806;2022-07-31T10:22:52;4.30;;;2.63;;
16579;SDS011;8402;51.466;6.806;2022-07-31T10:25:23;4.82;;;2.30;;
16579;SDS011;8402;51.466;6.806;2022-07-31T10:27:52;2.78;;;2.47;;
16579;SDS011;8402;51.466;6.806;2022-07-31T10:30:22;4.95;;;2.63;;
16579;SDS011;8402;51.466;6.806;2022-07-31T10:32:54;3.45;;;2.72;;
16579;SDS011;8402;51.466;6.806;2022-07-31T10:35:23;3.53;;;2.45;;
16579;SDS011;8402;51.466;6.806;2022-07-31T10:37:54;4.47;;;2.58;;
16579;SDS011;8402;51.466;6.806;2022-07-31T10:40:28;4.60;;;2.50;;
16579;SDS011;8402;51.466;6.806;2022-07-31T10:43:11;3.70;;;2.58;;
16579;SDS011;8402;51.466;6.806;2022-07-31T10:45:44;5.00;;;2.67;;
16579;SDS011;8402;51.466;6.806;2022-07-31T10:48:13;3.55;;;2.28;;
16579;SDS011;8402;51.466;6.806;2022-07-31T10:50:42;4.07;;;2.83;;
16579;SDS011;8402;51.466;6.806;2022-07-31T10:53:12;3.58;;;2.50;;
16579;SDS011;8402;51.466;6.806;2022-07-31T10:55:42;5.15;;;2.47;;
16579;SDS011;8402;51.466;6.806;2022-07-31T10:58:11;2.72;;;2.33;;
16579;SDS011;8402;51.466;6.806;2022-07-31T11:00:41;3.28;;;2.55;;
16579;SDS011;8402;51.466;6.806;2022-07-31T11:03:11;5.70;;;2.83;;
16579;SDS011;8402;51.466;6.806;2022-07-31T11:05:52;4.70;;;2.55;;
16579;SDS011;8402;51.466;6.806;2022-07-31T11:08:38;5.45;;;2.30;;
16579;SDS011;8402;51.466;6.806;2022-07-31T11:11:07;2.88;;;2.40;;
16579;SDS011;8402;51.466;6.806;2022-07-31T11:13:46;3.05;;;2.60;;
16579;SDS011;8402;51.466;6.806;2022-07-31T11:16:15;3.97;;;2.70;;
16579;SDS011;8402;51.466;6.806;2022-07-31T11:18:43;3.95;;;2.67;;
16579;SDS011;8402;51.466;6.806;2022-07-31T11:24:11;5.13;;;2.67;;
16579;SDS011;8402;51.466;6.806;2022-07-31T11:26:41;2.70;;;2.33;;
16579;SDS011;8402;51.466;6.806;2022-07-31T11:29:24;3.70;;;2.65;;
16579;SDS011;8402;51.466;6.806;2022-07-31T11:32:13;5.55;;;2.53;;
16579;SDS011;8402;51.466;6.806;2022-07-31T11:34:51;2.92;;;2.60;;
16579;SDS011;8402;51.466;6.806;2022-07-31T11:37:23;4.35;;;2.45;;
16579;SDS011;8402;51.466;6.806;2022-07-31T11:40:12;3.60;;;2.35;;
16579;SDS011;8402;51.466;6.806;2022-07-31T11:42:41;5.40;;;2.42;;
16579;SDS011;8402;51.466;6.806;2022-07-31T11:45:11;3.65;;;2.40;;
16579;SDS011;8402;51.466;6.806;2022-07-31T11:47:42;3.72;;;2.58;;
16579;SDS011;8402;51.466;6.806;2022-07-31T11:50:37;5.82;;;2.80;;
16579;SDS011;8402;51.466;6.806;2022-07-31T11:53:07;3.55;;;2.65;;
16579;SDS011;8402;51.466;6.806;2022-07-31T11:55:42;2.78;;;2.30;;
16579;SDS011;8402;51.466;6.806;2022-07-31T11:58:12;6.05;;;2.60;;
16579;SDS011;8402;51.466;6.806;2022-07-31T12:00:45;3.67;;;2.55;;
16579;SDS011;8402;51.466;6.806;2022-07-31T12:03:14;2.60;;;2.05;;
16579;SDS011;8402;51.466;6.806;2022-07-31T12:05:43;2.78;;;2.30;;
16579;SDS011;8402;51.466;6.806;2022-07-31T12:08:13;3.08;;;2.28;;
16579;SDS011;8402;51.466;6.806;2022-07-31T12:10:42;3.63;;;2.60;;
16579;SDS011;8402;51.466;6.806;2022-07-31T12:13:11;3.50;;;2.83;;
16579;SDS011;8402;51.466;6.806;2022-07-31T12:15:52;4.38;;;2.45;;
16579;SDS011;8402;51.466;6.806;2022-07-31T12:18:21;3.35;;;2.40;;
16579;SDS011;8402;51.466;6.806;2022-07-31T12:20:52;4.90;;;2.67;;
16579;SDS011;8402;51.466;6.806;2022-07-31T12:23:23;3.35;;;2.28;;
16579;SDS011;8402;51.466;6.806;2022-07-31T12:26:06;5.88;;;2.40;;
16579;SDS011;8402;51.466;6.806;2022-07-31T12:28:34;5.20;;;2.53;;
16579;SDS011;8402;51.466;6.806;2022-07-31T12:31:02;2.83;;;2.50;;
16579;SDS011;8402;51.466;6.806;2022-07-31T12:33:38;5.97;;;2.50;;
16579;SDS011;8402;51.466;6.806;2022-07-31T12:36:10;3.83;;;2.58;;
16579;SDS011;8402;51.466;6.806;2022-07-31T12:38:44;7.78;;;2.67;;
16579;SDS011;8402;51.466;6.806;2022-07-31T12:41:14;3.40;;;2.83;;
16579;SDS011;8402;51.466;6.806;2022-07-31T12:43:42;4.13;;;2.78;;
16579;SDS011;8402;51.466;6.806;2022-07-31T12:46:18;3.72;;;2.47;;
16579;SDS011;8402;51.466;6.806;2022-07-31T12:48:47;6.03;;;2.78;;
16579;SDS011;8402;51.466;6.806;2022-07-31T12:51:16;2.67;;;2.33;;
16579;SDS011;8402;51.466;6.806;2022-07-31T12:54:06;4.60;;;2.92;;
16579;SDS011;8402;51.466;6.806;2022-07-31T12:56:35;3.53;;;2.80;;
16579;SDS011;8402;51.466;6.806;2022-07-31T12:59:05;3.45;;;3.15;;
16579;SDS011;8402;51.466;6.806;2022-07-31T13:01:34;3.97;;;2.90;;
16579;SDS011;8402;51.466;6.806;2022-07-31T13:04:03;3.95;;;3.25;;
16579;SDS011;8402;51.466;6.806;2022-07-31T13:06:44;3.38;;;3.00;;
16579;SDS011;8402;51.466;6.806;2022-07-31T13:09:18;4.38;;;3.25;;
16579;SDS011;8402;51.466;6.806;2022-07-31T13:11:46;3.50;;;3.20;;
16579;SDS011;8402;51.466;6.806;2022-07-31T13:14:21;3.97;;;3.15;;
16579;SDS011;8402;51.466;6.806;2022-07-31T13:16:50;4.53;;;3.20;;
16579;SDS011;8402;51.466;6.806;2022-07-31T13:19:19;3.45;;;3.15;;
16579;SDS011;8402;51.466;6.806;2022-07-31T13:21:47;3.47;;;3.17;;
16579;SDS011;8402;51.466;6.806;2022-07-31T13:24:16;5.13;;;3.17;;
16579;SDS011;8402;51.466;6.806;2022-07-31T13:26:46;4.82;;;3.58;;
16579;SDS011;8402;51.466;6.806;2022-07-31T13:29:14;4.00;;;3.08;;
16579;SDS011;8402;51.466;6.806;2022-07-31T13:31:42;4.22;;;3.30;;
16579;SDS011;8402;51.466;6.806;2022-07-31T13:34:11;3.78;;;3.40;;
16579;SDS011;8402;51.466;6.806;2022-07-31T13:36:39;3.78;;;3.17;;
16579;SDS011;8402;51.466;6.806;2022-07-31T13:39:07;3.30;;;3.00;;
16579;SDS011;8402;51.466;6.806;2022-07-31T13:41:36;4.82;;;2.65;;
16579;SDS011;8402;51.466;6.806;2022-07-31T13:44:08;5.47;;;2.88;;
16579;SDS011;8402;51.466;6.806;2022-07-31T13:46:36;4.97;;;2.50;;
16579;SDS011;8402;51.466;6.806;2022-07-31T13:49:04;4.13;;;3.00;;
16579;SDS011;8402;51.466;6.806;2022-07-31T13:51:36;3.30;;;3.00;;
16579;SDS011;8402;51.466;6.806;2022-07-31T13:54:04;2.67;;;2.47;;
16579;SDS011;8402;51.466;6.806;2022-07-31T13:56:33;3.80;;;2.60;;
16579;SDS011;8402;51.466;6.806;2022-07-31T13:59:10;3.17;;;2.83;;
16579;SDS011;8402;51.466;6.806;2022-07-31T14:01:39;3.30;;;3.00;;
16579;SDS011;8402;51.466;6.806;2022-07-31T14:04:27;3.58;;;2.65;;
16579;SDS011;8402;51.466;6.806;2022-07-31T14:07:03;4.65;;;3.22;;
16579;SDS011;8402;51.466;6.806;2022-07-31T14:09:33;3.60;;;2.67;;
16579;SDS011;8402;51.466;6.806;2022-07-31T14:12:03;3.72;;;2.90;;
16579;SDS011;8402;51.466;6.806;2022-07-31T14:14:33;3.47;;;3.05;;
16579;SDS011;8402;51.466;6.806;2022-07-31T14:17:01;3.42;;;3.13;;
16579;SDS011;8402;51.466;6.806;2022-07-31T14:19:29;5.35;;;2.95;;
16579;SDS011;8402;51.466;6.806;2022-07-31T14:22:09;4.45;;;2.95;;
16579;SDS011;8402;51.466;6.806;2022-07-31T14:24:39;3.20;;;2.65;;
16579;SDS011;8402;51.466;6.806;2022-07-31T14:27:16;5.25;;;3.00;;
16579;SDS011;8402;51.466;6.806;2022-07-31T14:29:45;3.10;;;2.80;;
16579;SDS011;8402;51.466;6.806;2022-07-31T14:32:13;4.20;;;2.47;;
16579;SDS011;8402;51.466;6.806;2022-07-31T14:34:41;3.17;;;2.70;;
16579;SDS011;8402;51.466;6.806;2022-07-31T14:37:09;4.68;;;2.53;;
16579;SDS011;8402;51.466;6.806;2022-07-31T14:39:37;3.83;;;2.75;;
16579;SDS011;8402;51.466;6.806;2022-07-31T14:42:08;3.38;;;2.75;;
16579;SDS011;8402;51.466;6.806;2022-07-31T14:44:37;4.20;;;2.90;;
16579;SDS011;8402;51.466;6.806;2022-07-31T14:47:09;3.55;;;2.88;;
16579;SDS011;8402;51.466;6.806;2022-07-31T14:49:37;3.05;;;2.78;;
16579;SDS011;8402;51.466;6.806;2022-07-31T14:52:25;3.17;;;2.50;;
16579;SDS011;8402;51.466;6.806;2022-07-31T14:54:54;6.07;;;3.08;;
16579;SDS011;8402;51.466;6.806;2022-07-31T14:57:24;4.13;;;2.90;;
16579;SDS011;8402;51.466;6.806;2022-07-31T14:59:52;3.30;;;2.70;;
16579;SDS011;8402;51.466;6.806;2022-07-31T15:02:22;3.35;;;2.45;;
16579;SDS011;8402;51.466;6.806;2022-07-31T15:04:50;2.80;;;2.50;;
16579;SDS011;8402;51.466;6.806;2022-07-31T15:07:18;4.43;;;2.60;;
16579;SDS011;8402;51.466;6.806;2022-07-31T15:10:06;4.53;;;2.53;;
16579;SDS011;8402;51.466;6.806;2022-07-31T15:12:36;3.28;;;2.70;;
16579;SDS011;8402;51.466;6.806;2022-07-31T15:15:05;3.90;;;2.80;;
16579;SDS011;8402;51.466;6.806;2022-07-31T15:17:35;4.75;;;3.05;;
16579;SDS011;8402;51.466;6.806;2022-07-31T15:20:03;10.68;;;3.83;;
16579;SDS011;8402;51.466;6.806;2022-07-31T15:22:32;7.65;;;4.03;;
16579;SDS011;8402;51.466;6.806;2022-07-31T15:25:03;6.55;;;3.92;;
16579;SDS011;8402;51.466;6.806;2022-07-31T15:27:32;7.63;;;4.05;;